sensor_id;sensor_type;location;lat;lon;timestamp;pressure;altitude;pressure_sealevel;temperature;humidity
34185;BME280;20454;48.100;11.776;2022-12-07T00:03:33;95346.50;;;3.09;100.00
34185;BME280;20454;48.100;11.776;2022-12-07T00:06:00;95336.31;;;3.10;100.00
34185;BME280;20454;48.100;11.776;2022-12-07T00:08:26;95341.53;;;3.11;100.00
34185;BME280;20454;48.100;11.776;2022-12-07T00:10:52;95345.13;;;3.12;100.00
34185;BME280;20454;48.100;11.776;2022-12-07T00:13:18;95339.38;;;3.08;100.00
34185;BME280;20454;48.100;11.776;2022-12-07T00:15:44;95342.13;;;3.08;100.00
34185;BME280;20454;48.100;11.776;2022-12-07T00:18:10;95340.44;;;3.12;100.00
34185;BME280;20454;48.100;11.776;2022-12-07T00:20:36;95341.00;;;3.09;100.00
34185;BME280;20454;48.100;11.776;2022-12-07T00:23:01;95337.97;;;3.11;100.00
34185;BME280;20454;48.100;11.776;2022-12-07T00:25:27;95332.50;;;3.06;100.00
34185;BME280;20454;48.100;11.776;2022-12-07T00:27:53;95331.41;;;3.07;100.00
34185;BME280;20454;48.100;11.776;2022-12-07T00:30:23;95322.31;;;3.06;100.00
34185;BME280;20454;48.100;11.776;2022-12-07T00:32:50;95326.72;;;3.07;100.00
34185;BME280;20454;48.100;11.776;2022-12-07T00:35:15;95330.28;;;3.08;100.00
34185;BME280;20454;48.100;11.776;2022-12-07T00:37:41;95333.31;;;3.06;100.00
34185;BME280;20454;48.100;11.776;2022-12-07T00:40:07;95329.75;;;3.06;100.00
34185;BME280;20454;48.100;11.776;2022-12-07T00:42:33;95328.66;;;3.07;100.00
34185;BME280;20454;48.100;11.776;2022-12-07T00:44:59;95322.88;;;3.03;100.00
34185;BME280;20454;48.100;11.776;2022-12-07T00:47:24;95335.53;;;3.04;100.00
34185;BME280;20454;48.100;11.776;2022-12-07T00:49:50;95337.16;;;3.05;100.00
34185;BME280;20454;48.100;11.776;2022-12-07T00:52:16;95333.03;;;3.03;100.00
34185;BME280;20454;48.100;11.776;2022-12-07T00:54:41;95325.91;;;3.02;100.00
34185;BME280;20454;48.100;11.776;2022-12-07T00:57:07;95333.03;;;3.03;100.00
34185;BME280;20454;48.100;11.776;2022-12-07T00:59:33;95335.53;;;3.04;100.00
34185;BME280;20454;48.100;11.776;2022-12-07T01:01:58;95331.94;;;3.04;100.00
34185;BME280;20454;48.100;11.776;2022-12-07T01:04:24;95334.41;;;3.05;100.00
34185;BME280;20454;48.100;11.776;2022-12-07T01:06:50;95328.13;;;3.05;100.00
34185;BME280;20454;48.100;11.776;2022-12-07T01:09:15;95335.78;;;3.03;100.00
34185;BME280;20454;48.100;11.776;2022-12-07T01:11:41;95321.25;;;2.97;100.00
34185;BME280;20454;48.100;11.776;2022-12-07T01:14:08;95322.91;;;2.98;100.00
34185;BME280;20454;48.100;11.776;2022-12-07T01:16:34;95331.66;;;3.00;100.00
34185;BME280;20454;48.100;11.776;2022-12-07T01:19:00;95341.59;;;3.01;100.00
34185;BME280;20454;48.100;11.776;2022-12-07T01:21:29;95340.75;;;3.01;100.00
34185;BME280;20454;48.100;11.776;2022-12-07T01:23:57;95334.72;;;2.99;100.00
34185;BME280;20454;48.100;11.776;2022-12-07T01:26:24;95327.59;;;2.98;100.00
34185;BME280;20454;48.100;11.776;2022-12-07T01:28:50;95326.75;;;2.97;100.00
34185;BME280;20454;48.100;11.776;2022-12-07T01:31:18;95323.47;;;2.95;100.00
34185;BME280;20454;48.100;11.776;2022-12-07T01:33:48;95328.66;;;2.97;100.00
34185;BME280;20454;48.100;11.776;2022-12-07T01:36:15;95331.41;;;2.97;100.00
34185;BME280;20454;48.100;11.776;2022-12-07T01:38:41;95329.50;;;2.92;100.00
34185;BME280;20454;48.100;11.776;2022-12-07T01:41:07;95332.50;;;2.96;100.00
34185;BME280;20454;48.100;11.776;2022-12-07T01:43:34;95331.97;;;2.94;100.00
34185;BME280;20454;48.100;11.776;2022-12-07T01:46:00;95333.91;;;2.93;100.00
34185;BME280;20454;48.100;11.776;2022-12-07T01:48:34;95331.16;;;2.93;100.00
34185;BME280;20454;48.100;11.776;2022-12-07T01:51:05;95328.97;;;2.90;100.00
34185;BME280;20454;48.100;11.776;2022-12-07T01:53:34;95329.25;;;2.89;100.00
34185;BME280;20454;48.100;11.776;2022-12-07T01:56:03;95324.06;;;2.87;100.00
34185;BME280;20454;48.100;11.776;2022-12-07T01:58:31;95329.53;;;2.87;100.00
34185;BME280;20454;48.100;11.776;2022-12-07T02:00:56;95319.34;;;2.88;100.00
34185;BME280;20454;48.100;11.776;2022-12-07T02:03:29;95319.94;;;2.85;100.00
34185;BME280;20454;48.100;11.776;2022-12-07T02:05:57;95319.63;;;2.86;100.00
34185;BME280;20454;48.100;11.776;2022-12-07T02:08:24;95315.25;;;2.85;100.00
34185;BME280;20454;48.100;11.776;2022-12-07T02:10:50;95325.13;;;2.86;100.00
34185;BME280;20454;48.100;11.776;2022-12-07T02:13:23;95325.38;;;2.90;100.00
34185;BME280;20454;48.100;11.776;2022-12-07T02:27:52;95324.84;;;2.88;100.00
34185;BME280;20454;48.100;11.776;2022-12-07T02:30:22;95316.06;;;2.86;100.00
34185;BME280;20454;48.100;11.776;2022-12-07T02:35:47;95309.47;;;2.82;100.00
34185;BME280;20454;48.100;11.776;2022-12-07T02:41:00;95304.81;;;2.82;100.00
34185;BME280;20454;48.100;11.776;2022-12-07T02:43:31;95314.44;;;2.85;100.00
34185;BME280;20454;48.100;11.776;2022-12-07T02:46:03;95316.06;;;2.86;100.00
34185;BME280;20454;48.100;11.776;2022-12-07T02:48:29;95312.78;;;2.84;100.00
34185;BME280;20454;48.100;11.776;2022-12-07T02:50:56;95311.38;;;2.86;100.00
34185;BME280;20454;48.100;11.776;2022-12-07T02:53:42;95318.81;;;2.86;100.00
34185;BME280;20454;48.100;11.776;2022-12-07T02:59:17;95301.25;;;2.87;100.00
34185;BME280;20454;48.100;11.776;2022-12-07T05:32:21;95294.13;;;2.76;100.00
34185;BME280;20454;48.100;11.776;2022-12-07T05:34:47;95290.03;;;2.73;100.00
34185;BME280;20454;48.100;11.776;2022-12-07T05:37:13;95290.84;;;2.74;100.00
34185;BME280;20454;48.100;11.776;2022-12-07T05:39:38;95286.72;;;2.71;100.00
34185;BME280;20454;48.100;11.776;2022-12-07T05:42:06;95288.09;;;2.69;100.00
34185;BME280;20454;48.100;11.776;2022-12-07T05:44:39;95287.28;;;2.68;100.00
34185;BME280;20454;48.100;11.776;2022-12-07T05:47:05;95283.16;;;2.66;100.00
34185;BME280;20454;48.100;11.776;2022-12-07T05:49:31;95287.56;;;2.67;100.00
34185;BME280;20454;48.100;11.776;2022-12-07T05:51:57;95279.91;;;2.64;100.00
34185;BME280;20454;48.100;11.776;2022-12-07T05:54:23;95278.25;;;2.63;100.00
34185;BME280;20454;48.100;11.776;2022-12-07T05:56:48;95285.91;;;2.61;100.00
34185;BME280;20454;48.100;11.776;2022-12-07T05:59:15;95287.03;;;2.60;100.00
34185;BME280;20454;48.100;11.776;2022-12-07T06:43:18;95304.06;;;2.57;100.00
34185;BME280;20454;48.100;11.776;2022-12-07T06:45:44;95312.31;;;2.57;100.00
34185;BME280;20454;48.100;11.776;2022-12-07T06:48:10;95308.19;;;2.54;100.00
34185;BME280;20454;48.100;11.776;2022-12-07T06:50:35;95307.91;;;2.56;100.00
34185;BME280;20454;48.100;11.776;2022-12-07T06:53:01;95304.34;;;2.55;100.00
34185;BME280;20454;48.100;11.776;2022-12-07T06:55:27;95317.78;;;2.57;100.00
34185;BME280;20454;48.100;11.776;2022-12-07T06:57:52;95322.72;;;2.55;100.00
34185;BME280;20454;48.100;11.776;2022-12-07T07:00:18;95317.53;;;2.53;100.00
34185;BME280;20454;48.100;11.776;2022-12-07T07:02:44;95324.38;;;2.56;100.00
34185;BME280;20454;48.100;11.776;2022-12-07T07:05:10;95312.31;;;2.52;100.00
34185;BME280;20454;48.100;11.776;2022-12-07T07:07:35;95313.69;;;2.54;100.00
34185;BME280;20454;48.100;11.776;2022-12-07T07:10:01;95322.19;;;2.53;100.00
34185;BME280;20454;48.100;11.776;2022-12-07T07:12:26;95326.28;;;2.55;100.00
34185;BME280;20454;48.100;11.776;2022-12-07T07:14:52;95329.59;;;2.57;100.00
34185;BME280;20454;48.100;11.776;2022-12-07T07:17:18;95319.97;;;2.55;100.00
34185;BME280;20454;48.100;11.776;2022-12-07T07:19:43;95326.28;;;2.55;100.00
34185;BME280;20454;48.100;11.776;2022-12-07T07:22:09;95325.19;;;2.56;100.00
34185;BME280;20454;48.100;11.776;2022-12-07T07:24:35;95319.44;;;2.58;100.00
34185;BME280;20454;48.100;11.776;2022-12-07T07:27:00;95325.19;;;2.61;100.00
34185;BME280;20454;48.100;11.776;2022-12-07T07:29:26;95325.19;;;2.61;100.00
34185;BME280;20454;48.100;11.776;2022-12-07T07:31:52;95329.31;;;2.64;100.00
34185;BME280;20454;48.100;11.776;2022-12-07T07:34:17;95330.97;;;2.65;100.00
34185;BME280;20454;48.100;11.776;2022-12-07T07:36:43;95338.66;;;2.63;100.00
34185;BME280;20454;48.100;11.776;2022-12-07T07:39:09;95336.19;;;2.61;100.00
34185;BME280;20454;48.100;11.776;2022-12-07T07:41:35;95334.81;;;2.64;100.00
34185;BME280;20454;48.100;11.776;2022-12-07T07:44:01;95344.94;;;2.63;100.00
34185;BME280;20454;48.100;11.776;2022-12-07T07:46:26;95344.69;;;2.70;100.00
34185;BME280;20454;48.100;11.776;2022-12-07T07:48:52;95344.69;;;2.70;100.00
34185;BME280;20454;48.100;11.776;2022-12-07T07:51:18;95338.91;;;2.71;100.00
34185;BME280;20454;48.100;11.776;2022-12-07T07:53:43;95338.91;;;2.71;100.00
34185;BME280;20454;48.100;11.776;2022-12-07T07:56:09;95343.59;;;2.71;100.00
34185;BME280;20454;48.100;11.776;2022-12-07T07:58:35;95338.63;;;2.73;100.00
34185;BME280;20454;48.100;11.776;2022-12-07T08:01:08;95335.88;;;2.73;100.00
34185;BME280;20454;48.100;11.776;2022-12-07T08:03:33;95343.84;;;2.74;100.00
34185;BME280;20454;48.100;11.776;2022-12-07T08:05:59;95348.50;;;2.74;100.00
34185;BME280;20454;48.100;11.776;2022-12-07T08:08:25;95341.09;;;2.74;100.00
34185;BME280;20454;48.100;11.776;2022-12-07T08:10:51;95351.25;;;2.79;100.00
34185;BME280;20454;48.100;11.776;2022-12-07T08:13:16;95344.13;;;2.73;100.00
34185;BME280;20454;48.100;11.776;2022-12-07T08:15:47;95347.69;;;2.73;100.00
34185;BME280;20454;48.100;11.776;2022-12-07T08:18:14;95350.72;;;2.72;100.00
34185;BME280;20454;48.100;11.776;2022-12-07T08:20:41;95340.00;;;2.70;100.00
34185;BME280;20454;48.100;11.776;2022-12-07T08:23:07;95350.72;;;2.72;100.00
34185;BME280;20454;48.100;11.776;2022-12-07T08:25:33;95349.31;;;2.79;100.00
34185;BME280;20454;48.100;11.776;2022-12-07T08:28:00;95350.69;;;2.82;100.00
34185;BME280;20454;48.100;11.776;2022-12-07T08:30:26;95348.78;;;2.82;100.00
34185;BME280;20454;48.100;11.776;2022-12-07T08:32:52;95351.25;;;2.84;100.00
34185;BME280;20454;48.100;11.776;2022-12-07T08:35:18;95349.31;;;2.94;100.00
34185;BME280;20454;48.100;11.776;2022-12-07T08:37:44;95355.06;;;2.93;100.00
34185;BME280;20454;48.100;11.776;2022-12-07T08:40:11;95353.44;;;2.87;100.00
34185;BME280;20454;48.100;11.776;2022-12-07T08:42:41;95348.50;;;2.84;100.00
34185;BME280;20454;48.100;11.776;2022-12-07T08:45:09;95354.25;;;2.87;100.00
34185;BME280;20454;48.100;11.776;2022-12-07T08:47:40;95357.81;;;2.88;100.00
34185;BME280;20454;48.100;11.776;2022-12-07T08:50:07;95351.22;;;2.89;100.00
34185;BME280;20454;48.100;11.776;2022-12-07T08:52:35;95343.25;;;2.92;100.00
34185;BME280;20454;48.100;11.776;2022-12-07T08:55:01;95346.03;;;2.87;100.00
34185;BME280;20454;48.100;11.776;2022-12-07T08:57:28;95344.88;;;2.93;100.00
34185;BME280;20454;48.100;11.776;2022-12-07T08:59:55;95353.38;;;2.97;100.00
34185;BME280;20454;48.100;11.776;2022-12-07T09:02:21;95360.25;;;3.04;100.00
34185;BME280;20454;48.100;11.776;2022-12-07T09:04:47;95356.13;;;3.07;100.00
34185;BME280;20454;48.100;11.776;2022-12-07T09:07:12;95354.72;;;3.14;100.00
34185;BME280;20454;48.100;11.776;2022-12-07T09:09:38;95354.16;;;3.17;100.00
34185;BME280;20454;48.100;11.776;2022-12-07T09:12:04;95350.03;;;3.20;100.00
34185;BME280;20454;48.100;11.776;2022-12-07T09:14:29;95351.09;;;3.29;99.70
34185;BME280;20454;48.100;11.776;2022-12-07T09:17:04;95358.25;;;3.30;99.80
34185;BME280;20454;48.100;11.776;2022-12-07T09:19:30;95356.59;;;3.29;100.00
34185;BME280;20454;48.100;11.776;2022-12-07T09:21:56;95350.25;;;3.33;100.00
34185;BME280;20454;48.100;11.776;2022-12-07T09:24:21;95354.34;;;3.41;100.00
34185;BME280;20454;48.100;11.776;2022-12-07T09:26:48;95348.25;;;3.49;99.54
34185;BME280;20454;48.100;11.776;2022-12-07T09:29:13;95353.16;;;3.57;99.33
34185;BME280;20454;48.100;11.776;2022-12-07T09:31:39;95351.47;;;3.66;98.50
34185;BME280;20454;48.100;11.776;2022-12-07T09:34:05;95345.69;;;3.67;97.66
34185;BME280;20454;48.100;11.776;2022-12-07T09:36:31;95342.13;;;3.67;97.61
34185;BME280;20454;48.100;11.776;2022-12-07T09:38:57;95349.78;;;3.75;98.00
34185;BME280;20454;48.100;11.776;2022-12-07T09:41:23;95338.47;;;3.81;95.92
34185;BME280;20454;48.100;11.776;2022-12-07T09:43:50;95337.81;;;3.99;95.63
34185;BME280;20454;48.100;11.776;2022-12-07T09:46:17;95342.19;;;4.00;95.13
34185;BME280;20454;48.100;11.776;2022-12-07T09:48:44;95340.56;;;3.99;93.16
34185;BME280;20454;48.100;11.776;2022-12-07T09:51:20;95327.91;;;3.98;93.28
34185;BME280;20454;48.100;11.776;2022-12-07T09:53:45;95338.06;;;4.03;91.89
34185;BME280;20454;48.100;11.776;2022-12-07T09:56:16;95324.59;;;3.96;92.13
34185;BME280;20454;48.100;11.776;2022-12-07T09:58:43;95329.81;;;4.03;91.58
34185;BME280;20454;48.100;11.776;2022-12-07T10:01:12;95331.72;;;4.02;91.99
34185;BME280;20454;48.100;11.776;2022-12-07T10:03:40;95332.56;;;4.03;90.42
34185;BME280;20454;48.100;11.776;2022-12-07T10:06:10;95319.84;;;4.07;90.75
34185;BME280;20454;48.100;11.776;2022-12-07T10:08:37;95323.97;;;4.09;89.96
34185;BME280;20454;48.100;11.776;2022-12-07T10:11:03;95319.19;;;4.20;90.08
34185;BME280;20454;48.100;11.776;2022-12-07T10:18:57;95316.16;;;4.26;88.35
34185;BME280;20454;48.100;11.776;2022-12-07T10:22:09;95320.50;;;4.32;88.02
34185;BME280;20454;48.100;11.776;2022-12-07T10:24:37;95316.31;;;4.35;88.13
34185;BME280;20454;48.100;11.776;2022-12-07T10:27:05;95310.50;;;4.41;85.96
34185;BME280;20454;48.100;11.776;2022-12-07T10:29:36;95306.34;;;4.44;87.02
34185;BME280;20454;48.100;11.776;2022-12-07T10:34:41;95310.13;;;4.53;87.45
34185;BME280;20454;48.100;11.776;2022-12-07T10:39:55;95303.69;;;4.62;87.06
34185;BME280;20454;48.100;11.776;2022-12-07T10:42:31;95302.81;;;4.66;85.72
34185;BME280;20454;48.100;11.776;2022-12-07T10:45:16;95294.56;;;4.66;85.45
34185;BME280;20454;48.100;11.776;2022-12-07T10:48:27;95301.16;;;4.70;84.91
34185;BME280;20454;48.100;11.776;2022-12-07T10:51:10;95293.63;;;4.76;85.11
34185;BME280;20454;48.100;11.776;2022-12-07T11:08:09;95297.34;;;5.13;82.74
34185;BME280;20454;48.100;11.776;2022-12-07T11:11:09;95279.50;;;5.06;84.88
34185;BME280;20454;48.100;11.776;2022-12-07T11:17:13;95262.16;;;4.82;84.58
34185;BME280;20454;48.100;11.776;2022-12-07T11:37:38;95256.56;;;4.87;84.86
34185;BME280;20454;48.100;11.776;2022-12-07T11:40:31;95258.00;;;4.84;84.88
34185;BME280;20454;48.100;11.776;2022-12-07T11:46:05;95258.94;;;4.98;84.00
34185;BME280;20454;48.100;11.776;2022-12-07T11:48:46;95256.81;;;4.90;84.60
34185;BME280;20454;48.100;11.776;2022-12-07T11:51:12;95251.53;;;4.94;84.30
34185;BME280;20454;48.100;11.776;2022-12-07T11:53:53;95246.72;;;5.04;84.55
34185;BME280;20454;48.100;11.776;2022-12-07T11:56:26;95234.66;;;5.00;84.29
34185;BME280;20454;48.100;11.776;2022-12-07T11:59:27;95239.75;;;4.88;85.50
34185;BME280;20454;48.100;11.776;2022-12-07T12:02:21;95232.44;;;4.79;84.78
34185;BME280;20454;48.100;11.776;2022-12-07T12:05:07;95234.47;;;4.68;86.27
34185;BME280;20454;48.100;11.776;2022-12-07T12:07:38;95221.31;;;4.65;86.12
34185;BME280;20454;48.100;11.776;2022-12-07T12:16:51;95213.03;;;4.89;84.80
34185;BME280;20454;48.100;11.776;2022-12-07T12:19:58;95215.63;;;5.22;82.18
34185;BME280;20454;48.100;11.776;2022-12-07T12:25:29;95206.38;;;5.13;80.96
34185;BME280;20454;48.100;11.776;2022-12-07T12:27:58;95206.66;;;5.12;81.45
34185;BME280;20454;48.100;11.776;2022-12-07T12:30:35;95214.25;;;5.01;81.66
34185;BME280;20454;48.100;11.776;2022-12-07T12:33:20;95207.56;;;5.07;81.11
34185;BME280;20454;48.100;11.776;2022-12-07T12:36:20;95208.31;;;5.13;80.55
34185;BME280;20454;48.100;11.776;2022-12-07T12:47:02;95210.97;;;4.53;83.52
34185;BME280;20454;48.100;11.776;2022-12-07T12:57:32;95199.22;;;5.12;83.48
34185;BME280;20454;48.100;11.776;2022-12-07T13:00:02;95200.44;;;5.25;83.32
34185;BME280;20454;48.100;11.776;2022-12-07T13:02:35;95200.06;;;5.31;80.36
34185;BME280;20454;48.100;11.776;2022-12-07T13:05:16;95184.84;;;5.34;80.75
34185;BME280;20454;48.100;11.776;2022-12-07T13:13:01;95195.44;;;5.27;83.58
34185;BME280;20454;48.100;11.776;2022-12-07T13:18:34;95191.19;;;5.16;84.15
34185;BME280;20454;48.100;11.776;2022-12-07T13:26:23;95179.06;;;4.93;86.83
34185;BME280;20454;48.100;11.776;2022-12-07T13:31:43;95180.47;;;4.91;84.39
34185;BME280;20454;48.100;11.776;2022-12-07T13:34:40;95176.34;;;4.70;86.23
34185;BME280;20454;48.100;11.776;2022-12-07T13:37:35;95175.50;;;4.69;86.34
34185;BME280;20454;48.100;11.776;2022-12-07T13:40:12;95183.91;;;4.59;87.08
34185;BME280;20454;48.100;11.776;2022-12-07T13:42:43;95179.50;;;4.58;87.40
34185;BME280;20454;48.100;11.776;2022-12-07T13:48:27;95179.59;;;4.48;89.11
34185;BME280;20454;48.100;11.776;2022-12-07T13:50:56;95165.97;;;4.39;89.65
34185;BME280;20454;48.100;11.776;2022-12-07T13:53:22;95180.00;;;4.37;89.60
34185;BME280;20454;48.100;11.776;2022-12-07T13:55:49;95176.69;;;4.40;89.37
34185;BME280;20454;48.100;11.776;2022-12-07T13:58:14;95174.03;;;4.30;89.66
34185;BME280;20454;48.100;11.776;2022-12-07T14:00:41;95185.84;;;4.36;89.57
34185;BME280;20454;48.100;11.776;2022-12-07T14:05:43;95175.81;;;4.16;91.39
34185;BME280;20454;48.100;11.776;2022-12-07T14:10:39;95181.19;;;4.03;92.36
34185;BME280;20454;48.100;11.776;2022-12-07T14:15:57;95171.31;;;4.02;93.31
34185;BME280;20454;48.100;11.776;2022-12-07T14:18:27;95175.94;;;4.06;93.98
34185;BME280;20454;48.100;11.776;2022-12-07T14:23:39;95169.63;;;4.01;94.31
34185;BME280;20454;48.100;11.776;2022-12-07T14:26:19;95172.13;;;4.02;93.59
34185;BME280;20454;48.100;11.776;2022-12-07T14:28:45;95157.88;;;3.95;93.43
34185;BME280;20454;48.100;11.776;2022-12-07T14:33:38;95162.84;;;3.93;93.87
34185;BME280;20454;48.100;11.776;2022-12-07T14:36:04;95162.66;;;3.85;94.28
34185;BME280;20454;48.100;11.776;2022-12-07T14:38:30;95175.34;;;3.81;95.12
34185;BME280;20454;48.100;11.776;2022-12-07T14:40:56;95171.56;;;3.72;95.39
34185;BME280;20454;48.100;11.776;2022-12-07T14:43:45;95166.97;;;3.62;95.71
34185;BME280;20454;48.100;11.776;2022-12-07T14:46:11;95171.13;;;3.60;96.17
34185;BME280;20454;48.100;11.776;2022-12-07T14:48:36;95177.19;;;3.57;96.60
34185;BME280;20454;48.100;11.776;2022-12-07T14:51:02;95170.91;;;3.51;96.38
34185;BME280;20454;48.100;11.776;2022-12-07T14:53:33;95176.44;;;3.46;97.21
34185;BME280;20454;48.100;11.776;2022-12-07T14:56:00;95170.69;;;3.43;96.96
34185;BME280;20454;48.100;11.776;2022-12-07T14:58:26;95166.59;;;3.40;96.60
34185;BME280;20454;48.100;11.776;2022-12-07T15:00:51;95163.59;;;3.32;97.00
34185;BME280;20454;48.100;11.776;2022-12-07T15:03:17;95162.28;;;3.29;97.56
34185;BME280;20454;48.100;11.776;2022-12-07T15:05:43;95162.59;;;3.23;97.40
34185;BME280;20454;48.100;11.776;2022-12-07T15:08:09;95161.53;;;3.19;97.81
34185;BME280;20454;48.100;11.776;2022-12-07T15:10:36;95162.66;;;3.13;97.93
34185;BME280;20454;48.100;11.776;2022-12-07T15:13:04;95168.75;;;3.05;98.28
34185;BME280;20454;48.100;11.776;2022-12-07T15:15:50;95160.56;;;2.95;98.77
34185;BME280;20454;48.100;11.776;2022-12-07T15:18:17;95157.31;;;2.88;98.80
34185;BME280;20454;48.100;11.776;2022-12-07T15:20:43;95162.56;;;2.79;98.81
34185;BME280;20454;48.100;11.776;2022-12-07T15:23:10;95156.56;;;2.72;99.06
34185;BME280;20454;48.100;11.776;2022-12-07T15:25:36;95164.28;;;2.65;99.25
34185;BME280;20454;48.100;11.776;2022-12-07T15:28:02;95157.19;;;2.54;99.70
34185;BME280;20454;48.100;11.776;2022-12-07T15:30:27;95164.09;;;2.47;99.64
34185;BME280;20454;48.100;11.776;2022-12-07T15:32:53;95156.69;;;2.37;100.00
34185;BME280;20454;48.100;11.776;2022-12-07T15:35:20;95168.53;;;2.28;100.00
34185;BME280;20454;48.100;11.776;2022-12-07T15:37:46;95171.03;;;2.19;100.00
34185;BME280;20454;48.100;11.776;2022-12-07T15:40:12;95168.63;;;2.08;100.00
34185;BME280;20454;48.100;11.776;2022-12-07T15:42:39;95170.81;;;2.01;100.00
34185;BME280;20454;48.100;11.776;2022-12-07T15:45:05;95163.97;;;1.93;100.00
34185;BME280;20454;48.100;11.776;2022-12-07T15:47:34;95162.59;;;1.86;100.00
34185;BME280;20454;48.100;11.776;2022-12-07T15:50:03;95172.50;;;1.87;100.00
34185;BME280;20454;48.100;11.776;2022-12-07T15:52:30;95171.66;;;1.81;100.00
34185;BME280;20454;48.100;11.776;2022-12-07T15:54:56;95170.28;;;1.79;100.00
34185;BME280;20454;48.100;11.776;2022-12-07T15:57:21;95161.81;;;1.70;100.00
34185;BME280;20454;48.100;11.776;2022-12-07T15:59:47;95170.56;;;1.67;100.00
34185;BME280;20454;48.100;11.776;2022-12-07T16:02:13;95162.06;;;1.59;100.00
34185;BME280;20454;48.100;11.776;2022-12-07T16:04:39;95161.53;;;1.52;100.00
34185;BME280;20454;48.100;11.776;2022-12-07T16:07:05;95165.94;;;1.48;100.00
34185;BME280;20454;48.100;11.776;2022-12-07T16:09:31;95153.31;;;1.42;100.00
34185;BME280;20454;48.100;11.776;2022-12-07T16:11:57;95157.44;;;1.39;100.00
34185;BME280;20454;48.100;11.776;2022-12-07T16:14:22;95156.34;;;1.35;100.00
34185;BME280;20454;48.100;11.776;2022-12-07T16:16:48;95162.63;;;1.31;100.00
34185;BME280;20454;48.100;11.776;2022-12-07T16:19:14;95159.59;;;1.27;100.00
34185;BME280;20454;48.100;11.776;2022-12-07T16:21:40;95164.00;;;1.23;100.00
34185;BME280;20454;48.100;11.776;2022-12-07T16:24:06;95158.50;;;1.18;100.00
34185;BME280;20454;48.100;11.776;2022-12-07T16:26:32;95162.34;;;1.17;100.00
34185;BME280;20454;48.100;11.776;2022-12-07T16:28:58;95160.44;;;1.18;100.00
34185;BME280;20454;48.100;11.776;2022-12-07T16:31:25;95154.13;;;1.17;100.00
34185;BME280;20454;48.100;11.776;2022-12-07T16:33:56;95153.59;;;1.15;100.00
34185;BME280;20454;48.100;11.776;2022-12-07T16:36:22;95152.22;;;1.18;100.00
34185;BME280;20454;48.100;11.776;2022-12-07T16:38:50;95152.50;;;1.16;100.00
34185;BME280;20454;48.100;11.776;2022-12-07T16:41:15;95154.97;;;1.18;100.00
34185;BME280;20454;48.100;11.776;2022-12-07T16:43:41;95154.13;;;1.17;100.00
34185;BME280;20454;48.100;11.776;2022-12-07T16:46:07;95150.84;;;1.15;100.00
34185;BME280;20454;48.100;11.776;2022-12-07T16:48:37;95152.75;;;1.15;100.00
34185;BME280;20454;48.100;11.776;2022-12-07T16:51:08;95145.66;;;1.19;100.00
34185;BME280;20454;48.100;11.776;2022-12-07T16:53:35;95147.84;;;1.22;100.00
34185;BME280;20454;48.100;11.776;2022-12-07T16:56:01;95150.03;;;1.25;100.00
34185;BME280;20454;48.100;11.776;2022-12-07T16:58:27;95150.59;;;1.27;100.00
34185;BME280;20454;48.100;11.776;2022-12-07T17:00:53;95152.22;;;1.28;100.00
34185;BME280;20454;48.100;11.776;2022-12-07T17:03:19;95151.13;;;1.29;100.00
34185;BME280;20454;48.100;11.776;2022-12-07T17:05:45;95149.22;;;1.29;100.00
34185;BME280;20454;48.100;11.776;2022-12-07T17:08:12;95139.38;;;1.28;100.00
34185;BME280;20454;48.100;11.776;2022-12-07T17:10:40;95140.72;;;1.31;100.00
34185;BME280;20454;48.100;11.776;2022-12-07T17:13:06;95141.00;;;1.29;100.00
34185;BME280;20454;48.100;11.776;2022-12-07T17:16:02;95147.84;;;1.27;100.00
34185;BME280;20454;48.100;11.776;2022-12-07T17:18:30;95142.63;;;1.25;100.00
34185;BME280;20454;48.100;11.776;2022-12-07T17:21:05;95139.88;;;1.25;100.00
34185;BME280;20454;48.100;11.776;2022-12-07T17:23:31;95143.19;;;1.22;100.00
34185;BME280;20454;48.100;11.776;2022-12-07T17:26:04;95140.44;;;1.22;100.00
34185;BME280;20454;48.100;11.776;2022-12-07T17:28:30;95142.63;;;1.20;100.00
34185;BME280;20454;48.100;11.776;2022-12-07T17:30:56;95140.97;;;1.19;100.00
34185;BME280;20454;48.100;11.776;2022-12-07T17:33:21;95139.59;;;1.17;100.00
34185;BME280;20454;48.100;11.776;2022-12-07T17:35:47;95140.44;;;1.12;100.00
34185;BME280;20454;48.100;11.776;2022-12-07T17:38:13;95132.22;;;1.07;100.00
34185;BME280;20454;48.100;11.776;2022-12-07T17:40:38;95138.50;;;1.08;100.00
34185;BME280;20454;48.100;11.776;2022-12-07T17:43:04;95135.22;;;1.06;100.00
34185;BME280;20454;48.100;11.776;2022-12-07T17:45:30;95127.53;;;1.03;100.00
34185;BME280;20454;48.100;11.776;2022-12-07T17:47:55;95128.13;;;1.05;100.00
34185;BME280;20454;48.100;11.776;2022-12-07T17:50:21;95124.81;;;1.08;100.00
34185;BME280;20454;48.100;11.776;2022-12-07T17:53:10;95133.31;;;1.06;100.00
34185;BME280;20454;48.100;11.776;2022-12-07T17:55:35;95139.88;;;1.05;100.00
34185;BME280;20454;48.100;11.776;2022-12-07T17:58:01;95128.66;;;1.07;100.00
34185;BME280;20454;48.100;11.776;2022-12-07T20:36:04;95085.34;;;1.64;100.00
34185;BME280;20454;48.100;11.776;2022-12-07T20:38:30;95080.69;;;1.64;100.00
34185;BME280;20454;48.100;11.776;2022-12-07T20:41:00;95076.03;;;1.60;100.00
34185;BME280;20454;48.100;11.776;2022-12-07T20:43:27;95085.59;;;1.62;100.00
34185;BME280;20454;48.100;11.776;2022-12-07T20:45:53;95076.84;;;1.60;100.00
34185;BME280;20454;48.100;11.776;2022-12-07T20:48:18;95072.72;;;1.58;100.00
34185;BME280;20454;48.100;11.776;2022-12-07T20:50:44;95074.38;;;1.59;100.00
34185;BME280;20454;48.100;11.776;2022-12-07T20:53:10;95079.31;;;1.57;100.00
34185;BME280;20454;48.100;11.776;2022-12-07T20:55:35;95078.50;;;1.56;100.00
34185;BME280;20454;48.100;11.776;2022-12-07T20:58:02;95079.59;;;1.55;100.00
34185;BME280;20454;48.100;11.776;2022-12-07T21:00:27;95070.03;;;1.53;100.00